createdAt,value
2023-04-12T00:00:00.169Z, 9.8
2023-04-12T00:02:00.153Z, 9.9
2023-04-12T00:04:00.533Z, 9.8
2023-04-12T00:06:00.121Z, 9.8
2023-04-12T00:08:00.118Z, 9.9
2023-04-12T00:10:00.168Z, 9.9
2023-04-12T00:12:00.120Z, 9.9
2023-04-12T00:14:00.084Z, 10.1
2023-04-12T00:16:00.221Z, 10.1
2023-04-12T00:18:00.165Z, 10
2023-04-12T00:20:00.162Z, 10
2023-04-12T00:22:00.074Z, 9.6
2023-04-12T00:24:00.125Z, 9.6
2023-04-12T00:26:00.058Z, 9.2
2023-04-12T00:28:00.046Z, 9.2
2023-04-12T00:30:00.102Z, 8.8
2023-04-12T00:32:00.092Z, 8.6
2023-04-12T00:34:00.063Z, 8.4
2023-04-12T00:36:00.120Z, 8.3
2023-04-12T00:38:00.050Z, 8.3
2023-04-12T00:40:00.053Z, 8.1
2023-04-12T00:42:00.048Z, 8
2023-04-12T00:44:00.094Z, 7.9
2023-04-12T00:46:00.108Z, 7.8
2023-04-12T00:48:00.175Z, 7.8
2023-04-12T00:50:00.142Z, 7.8
2023-04-12T00:52:00.138Z, 8
2023-04-12T00:54:00.134Z, 8.1
2023-04-12T00:56:00.121Z, 8.1
2023-04-12T00:58:00.180Z, 8.1
2023-04-12T01:00:00.185Z, 8.2
2023-04-12T01:02:00.348Z, 8.2
2023-04-12T01:04:00.188Z, 8.4
2023-04-12T01:06:00.133Z, 8.4
2023-04-12T01:08:00.116Z, 8.6
2023-04-12T01:10:00.124Z, 8.7
2023-04-12T01:12:00.145Z, 8.7
2023-04-12T01:14:00.101Z, 8.6
2023-04-12T01:16:00.209Z, 8.8
2023-04-12T01:18:00.217Z, 8.7
2023-04-12T01:20:00.127Z, 8.6
2023-04-12T01:22:00.067Z, 8.6
2023-04-12T01:24:00.116Z, 8.5
2023-04-12T01:26:00.078Z, 8.4
2023-04-12T01:28:00.097Z, 8.1
2023-04-12T01:30:00.059Z, 8.2
2023-04-12T01:32:00.140Z, 8.2
2023-04-12T01:34:00.080Z, 8.2
2023-04-12T01:36:00.180Z, 8.2
2023-04-12T01:38:00.064Z, 8.1
2023-04-12T01:40:00.064Z, 7.9
2023-04-12T01:42:00.053Z, 7.6
2023-04-12T01:44:00.125Z, 7.7
2023-04-12T01:46:00.230Z, 7.8
2023-04-12T01:48:00.245Z, 7.7
2023-04-12T01:50:00.190Z, 7.6
2023-04-12T01:52:00.125Z, 7.6
2023-04-12T01:54:00.163Z, 7.7
2023-04-12T01:56:00.168Z, 7.7
2023-04-12T01:58:00.136Z, 7.7
2023-04-12T02:00:00.174Z, 7.7
2023-04-12T02:02:00.257Z, 7.6
2023-04-12T02:04:00.554Z, 7.6
2023-04-12T02:06:00.132Z, 7.7
2023-04-12T02:08:00.157Z, 7.6
2023-04-12T02:10:00.151Z, 7.4
2023-04-12T02:12:00.173Z, 7.4
2023-04-12T02:14:00.126Z, 7.5
2023-04-12T02:16:00.066Z, 7.4
2023-04-12T02:18:00.065Z, 7.4
2023-04-12T02:20:00.038Z, 7.4
2023-04-12T02:22:00.077Z, 7.4
2023-04-12T02:24:00.088Z, 7.3
2023-04-12T02:26:00.051Z, 7.3
2023-04-12T02:28:00.057Z, 7.3
2023-04-12T02:30:00.050Z, 7.3
2023-04-12T02:32:00.058Z, 7.2
2023-04-12T02:34:00.044Z, 7.3
2023-04-12T02:36:00.072Z, 7.3
2023-04-12T02:38:00.064Z, 7.3
2023-04-12T02:40:00.051Z, 7.3
2023-04-12T02:42:00.052Z, 7.1
2023-04-12T02:44:00.127Z, 7.2
2023-04-12T02:46:00.169Z, 7.2
2023-04-12T02:48:00.172Z, 7.2
2023-04-12T02:50:00.123Z, 7.2
2023-04-12T02:52:00.115Z, 7.1
2023-04-12T02:54:00.141Z, 7.1
2023-04-12T02:56:00.134Z, 7
2023-04-12T02:58:00.119Z, 7.1
2023-04-12T03:00:00.161Z, 7.1
2023-04-12T03:02:00.261Z, 7.1
2023-04-12T03:04:00.402Z, 7.2
2023-04-12T03:06:00.130Z, 7.2
2023-04-12T03:08:00.127Z, 7.2
2023-04-12T03:10:00.144Z, 7.1
2023-04-12T03:12:00.158Z, 6.9
2023-04-12T03:14:00.063Z, 6.8
2023-04-12T03:16:00.150Z, 6.9
2023-04-12T03:18:00.093Z, 6.9
2023-04-12T03:20:00.053Z, 6.8
2023-04-12T03:22:00.058Z, 6.9
2023-04-12T03:24:00.111Z, 6.9
2023-04-12T03:26:00.055Z, 6.9
2023-04-12T03:28:00.050Z, 6.9
2023-04-12T03:30:00.059Z, 7.1
2023-04-12T03:32:00.121Z, 7
2023-04-12T03:34:00.269Z, 7.2
2023-04-12T03:36:00.056Z, 7.1
2023-04-12T03:38:00.052Z, 7.1
2023-04-12T03:40:00.044Z, 7.2
2023-04-12T03:42:00.048Z, 7.1
2023-04-12T03:44:00.115Z, 7.1
2023-04-12T03:46:00.161Z, 7.1
2023-04-12T03:48:00.198Z, 7
2023-04-12T03:50:10.964Z, 7.1
2023-04-12T03:52:00.123Z, 7.1
2023-04-12T03:54:00.154Z, 6.8
2023-04-12T03:56:00.116Z, 7.1
2023-04-12T03:58:00.121Z, 7.1
2023-04-12T04:00:00.201Z, 6.8
2023-04-12T04:02:00.156Z, 7
2023-04-12T04:04:00.398Z, 7
2023-04-12T04:06:00.128Z, 7.1
2023-04-12T04:08:00.127Z, 7.1
2023-04-12T04:10:00.198Z, 7.1
2023-04-12T04:12:00.136Z, 7.1
2023-04-12T04:14:00.082Z, 7.2
2023-04-12T04:16:00.087Z, 7.1
2023-04-12T04:18:00.125Z, 6.9
2023-04-12T04:20:00.069Z, 7
2023-04-12T04:22:00.044Z, 7.2
2023-04-12T04:24:00.104Z, 7.3
2023-04-12T04:26:00.052Z, 7.2
2023-04-12T04:28:00.050Z, 7.3
2023-04-12T04:30:00.078Z, 7.4
2023-04-12T04:32:00.135Z, 7.3
2023-04-12T04:34:00.037Z, 7.3
2023-04-12T04:36:00.111Z, 7.2
2023-04-12T04:38:00.083Z, 7.1
2023-04-12T04:40:00.044Z, 6.9
2023-04-12T04:42:00.074Z, 6.9
2023-04-12T04:44:00.112Z, 7
2023-04-12T04:46:00.188Z, 7
2023-04-12T04:48:00.169Z, 6.9
2023-04-12T04:50:00.173Z, 7
2023-04-12T04:52:00.114Z, 7
2023-04-12T04:54:00.149Z, 6.9
2023-04-12T04:56:00.125Z, 7
2023-04-12T04:58:00.168Z, 7
2023-04-12T05:00:00.140Z, 7
2023-04-12T05:02:00.186Z, 7
2023-04-12T05:04:00.260Z, 6.9
2023-04-12T05:06:00.148Z, 7
2023-04-12T05:08:00.145Z, 6.9
2023-04-12T05:10:00.149Z, 7
2023-04-12T05:12:00.123Z, 7
2023-04-12T05:14:00.079Z, 7.1
2023-04-12T05:16:00.062Z, 7.1
2023-04-12T05:18:00.198Z, 7
2023-04-12T05:20:00.109Z, 7
2023-04-12T05:22:00.067Z, 6.9
2023-04-12T05:24:00.096Z, 6.8
2023-04-12T05:26:00.061Z, 6.8
2023-04-12T05:28:00.091Z, 7
2023-04-12T05:30:00.140Z, 7.3
2023-04-12T05:32:00.065Z, 7.4
2023-04-12T05:34:00.066Z, 7.2
2023-04-12T05:36:00.133Z, 7.1
2023-04-12T05:38:00.047Z, 7.1
2023-04-12T05:40:00.057Z, 7.1
2023-04-12T05:42:00.057Z, 7
2023-04-12T05:44:00.148Z, 7.1
2023-04-12T05:46:00.141Z, 7.2
2023-04-12T05:48:00.154Z, 7.3
2023-04-12T05:50:00.108Z, 7.3
2023-04-12T05:52:00.117Z, 7.2
2023-04-12T05:54:00.130Z, 7.2
2023-04-12T05:56:00.098Z, 7.3
2023-04-12T05:58:00.148Z, 7.3
2023-04-12T06:00:00.160Z, 7.2
2023-04-12T06:02:00.180Z, 7.2
2023-04-12T06:04:00.365Z, 7.2
2023-04-12T06:06:00.126Z, 7.2
2023-04-12T06:08:00.148Z, 7.3
2023-04-12T06:10:00.167Z, 7.3
2023-04-12T06:12:00.163Z, 7.2
2023-04-12T06:14:00.050Z, 7.2
2023-04-12T06:16:00.120Z, 7.3
2023-04-12T06:18:00.111Z, 7.3
2023-04-12T06:20:00.052Z, 7.3
2023-04-12T06:22:00.044Z, 7.3
2023-04-12T06:24:00.056Z, 7.3
2023-04-12T06:26:00.042Z, 7.3
2023-04-12T06:28:00.030Z, 7.3
2023-04-12T06:30:00.041Z, 7.2
2023-04-12T06:32:00.017Z, 7.3
2023-04-12T06:33:59.977Z, 7.2
2023-04-12T06:36:00.056Z, 7.3
2023-04-12T06:38:00.112Z, 7.3
2023-04-12T06:40:00.125Z, 7.3
2023-04-12T06:42:00.108Z, 7.3
2023-04-12T06:44:00.111Z, 7.3
2023-04-12T06:46:00.310Z, 7.3
2023-04-12T06:48:00.181Z, 7.3
2023-04-12T06:50:00.109Z, 7.3
2023-04-12T06:52:00.082Z, 7.3
2023-04-12T06:54:00.116Z, 7.4
2023-04-12T06:56:00.110Z, 7.3
2023-04-12T06:58:00.071Z, 7.4
2023-04-12T07:00:00.156Z, 7.4
2023-04-12T07:02:00.151Z, 7.5
2023-04-12T07:04:00.164Z, 7.6
2023-04-12T07:06:03.559Z, 7.4
2023-04-12T07:08:00.096Z, 7.4
2023-04-12T07:10:00.121Z, 7.5
2023-04-12T07:12:00.124Z, 7.5
2023-04-12T07:14:00.145Z, 7.5
2023-04-12T07:16:00.086Z, 7.5
2023-04-12T07:18:00.125Z, 7.5
2023-04-12T07:20:00.132Z, 7.6
2023-04-12T07:22:00.126Z, 7.6
2023-04-12T07:24:00.098Z, 7.7
2023-04-12T07:26:00.119Z, 7.8
2023-04-12T07:28:00.103Z, 7.9
2023-04-12T07:30:00.157Z, 7.7
2023-04-12T07:32:00.137Z, 8
2023-04-12T07:34:00.149Z, 7.9
2023-04-12T07:36:00.257Z, 7.8
2023-04-12T07:38:00.119Z, 7.9
2023-04-12T07:40:00.198Z, 7.9
2023-04-12T07:42:00.102Z, 7.9
2023-04-12T07:44:00.130Z, 7.8
2023-04-12T07:46:00.141Z, 7.9
2023-04-12T07:48:00.165Z, 7.9
2023-04-12T07:50:00.102Z, 8
2023-04-12T07:52:00.107Z, 8.1
2023-04-12T07:54:00.134Z, 8.1
2023-04-12T07:56:00.179Z, 8
2023-04-12T07:58:00.108Z, 8.1
2023-04-12T08:00:00.155Z, 8.1
2023-04-12T08:02:00.285Z, 8.1
2023-04-12T08:04:00.356Z, 8.1
2023-04-12T08:06:00.278Z, 8.1
2023-04-12T08:08:00.090Z, 8
2023-04-12T08:10:00.122Z, 8
2023-04-12T08:12:00.106Z, 8.2
2023-04-12T08:14:00.227Z, 8.1
2023-04-12T08:16:00.129Z, 8.1
2023-04-12T08:18:00.155Z, 8.2
2023-04-12T08:20:00.140Z, 8.2
2023-04-12T08:22:00.083Z, 8.2
2023-04-12T08:24:00.244Z, 8.2
2023-04-12T08:26:00.082Z, 8.2
2023-04-12T08:28:00.095Z, 8.3
2023-04-12T08:30:00.115Z, 8.4
2023-04-12T08:32:00.111Z, 8.2
2023-04-12T08:34:00.294Z, 8.3
2023-04-12T08:36:00.144Z, 8.4
2023-04-12T08:38:00.076Z, 8.5
2023-04-12T08:40:00.115Z, 8.5
2023-04-12T08:42:00.085Z, 8.5
2023-04-12T08:44:00.401Z, 8.5
2023-04-12T08:46:00.111Z, 8.5
2023-04-12T08:48:00.225Z, 8.5
2023-04-12T08:50:00.128Z, 8.5
2023-04-12T08:52:00.132Z, 8.5
2023-04-12T08:54:00.361Z, 8.5
2023-04-12T08:56:00.106Z, 8.5
2023-04-12T08:58:00.125Z, 8.6
2023-04-12T09:00:00.145Z, 8.7
2023-04-12T09:02:00.191Z, 8.7
2023-04-12T09:04:00.553Z, 8.6
2023-04-12T09:06:00.115Z, 8.6
2023-04-12T09:08:00.138Z, 8.7
2023-04-12T09:10:00.109Z, 8.8
2023-04-12T09:12:00.121Z, 9
2023-04-12T09:14:00.290Z, 9
2023-04-12T09:16:00.131Z, 8.9
2023-04-12T09:18:00.158Z, 8.9
2023-04-12T09:20:00.103Z, 8.9
2023-04-12T09:22:00.102Z, 9
2023-04-12T09:24:00.134Z, 9
2023-04-12T09:26:00.134Z, 8.9
2023-04-12T09:28:00.097Z, 8.9
2023-04-12T09:30:00.294Z, 8.9
2023-04-12T09:32:00.185Z, 8.9
2023-04-12T09:34:00.164Z, 8.8
2023-04-12T09:36:00.159Z, 8.8
2023-04-12T09:38:00.098Z, 8.9
2023-04-12T09:40:00.128Z, 8.9
2023-04-12T09:42:00.118Z, 9
2023-04-12T09:44:00.464Z, 9.2
2023-04-12T09:46:00.182Z, 9.1
2023-04-12T09:48:00.176Z, 9.2
2023-04-12T09:50:00.135Z, 9.3
2023-04-12T09:52:00.134Z, 9.6
2023-04-12T09:54:00.131Z, 9.7
2023-04-12T09:56:00.143Z, 9.8
2023-04-12T09:58:00.136Z, 9.6
2023-04-12T10:00:00.209Z, 9.6
2023-04-12T10:02:00.247Z, 9.6
2023-04-12T10:04:00.604Z, 9.5
2023-04-12T10:06:00.187Z, 9.5
2023-04-12T10:08:00.112Z, 9.4
2023-04-12T10:10:00.136Z, 9.3
2023-04-12T10:12:00.161Z, 9.4
2023-04-12T10:14:00.207Z, 9.4
2023-04-12T10:16:00.112Z, 9.6
2023-04-12T10:18:00.117Z, 9.7
2023-04-12T10:20:00.070Z, 9.6
2023-04-12T10:22:00.081Z, 9.8
2023-04-12T10:24:00.059Z, 9.8
2023-04-12T10:26:00.057Z, 9.7
2023-04-12T10:28:00.044Z, 9.9
2023-04-12T10:30:00.092Z, 9.9
2023-04-12T10:32:00.097Z, 9.9
2023-04-12T10:34:00.066Z, 10.1
2023-04-12T10:36:00.264Z, 10.4
2023-04-12T10:38:00.080Z, 10.4
2023-04-12T10:40:00.080Z, 10.3
2023-04-12T10:42:00.099Z, 10.5
2023-04-12T10:44:00.118Z, 10.7
2023-04-12T10:46:00.097Z, 10.8
2023-04-12T10:48:00.226Z, 11
2023-04-12T10:50:00.175Z, 11.2
2023-04-12T10:52:00.136Z, 11.2
2023-04-12T10:54:00.142Z, 11.2
2023-04-12T10:56:00.119Z, 11.3
2023-04-12T10:58:00.129Z, 11.3
2023-04-12T11:00:00.216Z, 11.2
2023-04-12T11:02:00.319Z, 10.9
2023-04-12T11:04:00.237Z, 10.8
2023-04-12T11:06:06.453Z, 10.5
2023-04-12T11:08:00.118Z, 10.7
2023-04-12T11:10:00.177Z, 10.6
2023-04-12T11:12:00.161Z, 11
2023-04-12T11:14:00.111Z, 11
2023-04-12T11:16:00.083Z, 11.6
2023-04-12T11:18:00.182Z, 11.8
2023-04-12T11:20:00.128Z, 12.2
2023-04-12T11:22:00.066Z, 12.2
2023-04-12T11:24:00.128Z, 12.3
2023-04-12T11:26:00.068Z, 12.4
2023-04-12T11:28:00.060Z, 11.8
2023-04-12T11:30:00.125Z, 11.9
2023-04-12T11:32:00.098Z, 12.2
2023-04-12T11:34:00.061Z, 12.2
2023-04-12T11:36:00.079Z, 12.1
2023-04-12T11:38:00.071Z, 12
2023-04-12T11:40:00.069Z, 11.9
2023-04-12T11:42:00.129Z, 12.3
2023-04-12T11:44:00.095Z, 12.5
2023-04-12T11:46:00.140Z, 12.1
2023-04-12T11:48:00.144Z, 12.2
2023-04-12T11:50:00.189Z, 12.3
2023-04-12T11:52:00.128Z, 12.1
2023-04-12T11:54:00.306Z, 12.2
2023-04-12T11:56:00.126Z, 11.8
2023-04-12T11:58:00.142Z, 11.6
2023-04-12T12:00:00.171Z, 11.5
2023-04-12T12:02:00.165Z, 11.5
2023-04-12T12:04:00.753Z, 11.1
2023-04-12T12:06:00.663Z, 10.9
2023-04-12T12:08:01.335Z, 10.9
2023-04-12T12:10:00.149Z, 10.8
2023-04-12T12:12:00.145Z, 10.9
2023-04-12T12:14:00.481Z, 10.8
2023-04-12T12:16:00.075Z, 10.8
2023-04-12T12:18:00.170Z, 11.1
2023-04-12T12:20:00.044Z, 11.4
2023-04-12T12:22:00.072Z, 11.4
2023-04-12T12:24:00.487Z, 11.5
2023-04-12T12:26:14.322Z, 11.2
2023-04-12T12:28:00.114Z, 10.9
2023-04-12T12:30:00.058Z, 10.7
2023-04-12T12:32:00.088Z, 10.7
2023-04-12T12:34:00.133Z, 10.7
2023-04-12T12:36:00.095Z, 10.9
2023-04-12T12:38:00.067Z, 11.1
2023-04-12T12:40:00.058Z, 11.3
2023-04-12T12:42:00.047Z, 11.2
2023-04-12T12:44:00.214Z, 11.6
2023-04-12T12:46:00.131Z, 11.9
2023-04-12T12:48:00.304Z, 12.5
2023-04-12T12:50:00.142Z, 13.1
2023-04-12T12:52:00.143Z, 13
2023-04-12T12:54:00.133Z, 12.5
2023-04-12T12:56:00.125Z, 13.2
2023-04-12T13:00:00.196Z, 12.3
2023-04-12T13:02:00.245Z, 11.9
2023-04-12T13:04:00.356Z, 11.9
2023-04-12T13:06:00.138Z, 11.8
2023-04-12T13:08:00.130Z, 12.4
2023-04-12T13:10:00.144Z, 12.2
2023-04-12T13:12:00.154Z, 12.5
2023-04-12T13:14:00.108Z, 12.2
2023-04-12T13:16:00.097Z, 12.2
2023-04-12T13:18:00.221Z, 12.3
2023-04-12T13:20:00.054Z, 12.1
2023-04-12T13:22:00.118Z, 12.1
2023-04-12T13:24:00.154Z, 12.3
2023-04-12T13:26:00.090Z, 12.7
2023-04-12T13:28:00.083Z, 12.9
2023-04-12T13:30:00.179Z, 13.3
2023-04-12T13:32:00.170Z, 13.5
2023-04-12T13:34:00.101Z, 13.5
2023-04-12T13:36:00.134Z, 13.2
2023-04-12T13:38:00.107Z, 13
2023-04-12T13:40:00.128Z, 13.3
2023-04-12T13:42:00.139Z, 13.5
2023-04-12T13:44:00.104Z, 13.8
2023-04-12T13:46:00.161Z, 13.7
2023-04-12T13:48:00.198Z, 13.3
2023-04-12T13:50:00.140Z, 13.5
2023-04-12T13:52:00.165Z, 13.9
2023-04-12T13:54:00.150Z, 13.7
2023-04-12T13:56:00.144Z, 13.7
2023-04-12T13:58:00.118Z, 13
2023-04-12T14:00:00.169Z, 12.6
2023-04-12T14:02:00.169Z, 12.6
2023-04-12T14:04:00.123Z, 12.7
2023-04-12T14:06:00.141Z, 12.6
2023-04-12T14:08:00.156Z, 12.7
2023-04-12T14:10:00.131Z, 12.7
2023-04-12T14:12:00.170Z, 12.6
2023-04-12T14:14:00.069Z, 12.7
2023-04-12T14:16:00.070Z, 12.6
2023-04-12T14:18:00.314Z, 12.5
2023-04-12T14:20:00.079Z, 12.4
2023-04-12T14:22:00.109Z, 12.6
2023-04-12T14:24:00.164Z, 12.6
2023-04-12T14:26:00.066Z, 12.5
2023-04-12T14:28:00.072Z, 12.5
2023-04-12T14:30:00.095Z, 12.6
2023-04-12T14:32:00.074Z, 12.6
2023-04-12T14:34:00.280Z, 12.5
2023-04-12T14:36:00.112Z, 12.4
2023-04-12T14:38:00.113Z, 12.3
2023-04-12T14:40:00.049Z, 12.2
2023-04-12T14:42:00.105Z, 12.1
2023-04-12T14:44:00.315Z, 11.9
2023-04-12T14:46:00.268Z, 11.6
2023-04-12T14:48:00.252Z, 11.2
2023-04-12T14:50:00.196Z, 10.4
2023-04-12T14:52:00.130Z, 9.9
2023-04-12T14:56:00.147Z, 9.2
2023-04-12T14:58:00.122Z, 8.9
2023-04-12T15:00:00.172Z, 8.9
2023-04-12T15:02:00.249Z, 8.9
2023-04-12T15:04:00.877Z, 8.7
2023-04-12T15:06:00.101Z, 8.6
2023-04-12T15:08:00.112Z, 8.6
2023-04-12T15:10:00.119Z, 8.8
2023-04-12T15:12:00.120Z, 8.8
2023-04-12T15:14:00.269Z, 8.8
2023-04-12T15:16:00.134Z, 8.8
2023-04-12T15:18:00.216Z, 8.7
2023-04-12T15:20:00.090Z, 8.9
2023-04-12T15:22:00.174Z, 9.1
2023-04-12T15:24:00.114Z, 9.7
2023-04-12T15:26:00.120Z, 9.8
2023-04-12T15:28:00.091Z, 9.9
2023-04-12T15:30:00.196Z, 10.3
2023-04-12T15:32:00.127Z, 10.3
2023-04-12T15:34:00.334Z, 10.7
2023-04-12T15:36:00.109Z, 10.8
2023-04-12T15:38:00.096Z, 10.9
2023-04-12T15:40:00.181Z, 11
2023-04-12T15:42:00.114Z, 11.2
2023-04-12T15:44:00.253Z, 11.2
2023-04-12T15:46:00.153Z, 11.1
2023-04-12T15:48:00.205Z, 11.1
2023-04-12T15:50:00.157Z, 10.9
2023-04-12T15:52:00.103Z, 10.9
2023-04-12T15:54:00.315Z, 11.1
2023-04-12T15:56:00.107Z, 11.3
2023-04-12T15:58:00.082Z, 11.2
2023-04-12T16:00:00.141Z, 11.2
2023-04-12T16:02:00.159Z, 11.3
2023-04-12T16:04:00.461Z, 11.4
2023-04-12T16:06:00.131Z, 11.6
2023-04-12T16:08:00.086Z, 12
2023-04-12T16:10:00.128Z, 12.2
2023-04-12T16:12:00.116Z, 12.1
2023-04-12T16:14:00.113Z, 12.2
2023-04-12T16:16:00.211Z, 11.9
2023-04-12T16:18:00.199Z, 11.7
2023-04-12T16:20:00.110Z, 12.2
2023-04-12T16:22:00.124Z, 12
2023-04-12T16:24:00.117Z, 11.7
2023-04-12T16:26:00.100Z, 11.7
2023-04-12T16:28:00.092Z, 11.8
2023-04-12T16:30:00.125Z, 11.7
2023-04-12T16:32:00.213Z, 11.8
2023-04-12T16:34:00.085Z, 11.6
2023-04-12T16:36:00.098Z, 11.7
2023-04-12T16:38:00.084Z, 11.5
2023-04-12T16:40:00.101Z, 11.5
2023-04-12T16:42:00.131Z, 11.7
2023-04-12T16:44:00.112Z, 11.8
2023-04-12T16:46:00.089Z, 11.4
2023-04-12T16:48:00.212Z, 11.2
2023-04-12T16:50:00.154Z, 11
2023-04-12T16:52:00.110Z, 10.9
2023-04-12T16:54:00.149Z, 10.8
2023-04-12T16:56:00.145Z, 10.4
2023-04-12T16:58:00.126Z, 10.6
2023-04-12T17:00:00.125Z, 10.5
2023-04-12T17:02:00.150Z, 10.5
2023-04-12T17:04:00.432Z, 10.4
2023-04-12T17:06:00.130Z, 10.3
2023-04-12T17:08:00.094Z, 10.5
2023-04-12T17:10:00.077Z, 10.3
2023-04-12T17:12:00.075Z, 10.4
2023-04-12T17:14:00.379Z, 10.6
2023-04-12T17:16:00.147Z, 10.4
2023-04-12T17:18:00.128Z, 10.3
2023-04-12T17:20:00.068Z, 10.2
2023-04-12T17:22:00.088Z, 10.2
2023-04-12T17:24:00.383Z, 10.3
2023-04-12T17:26:00.134Z, 10
2023-04-12T17:28:00.155Z, 9.5
2023-04-12T17:30:00.182Z, 9.1
2023-04-12T17:32:00.149Z, 9.1
2023-04-12T17:34:00.136Z, 9
2023-04-12T17:36:00.122Z, 9
2023-04-12T17:38:00.127Z, 9.1
2023-04-12T17:40:00.140Z, 9.1
2023-04-12T17:42:00.120Z, 8.8
2023-04-12T17:44:00.091Z, 8.7
2023-04-12T17:46:00.132Z, 8.7
2023-04-12T17:48:00.138Z, 8.7
2023-04-12T17:50:00.139Z, 8.6
2023-04-12T17:52:00.124Z, 8.5
2023-04-12T17:54:00.148Z, 8.5
2023-04-12T17:56:00.105Z, 8.4
2023-04-12T17:58:00.079Z, 8.4
2023-04-12T18:00:00.085Z, 8.3
2023-04-12T18:02:00.167Z, 8.2
2023-04-12T18:04:00.140Z, 8
2023-04-12T18:06:00.063Z, 7.8
2023-04-12T18:08:00.051Z, 7.6
2023-04-12T18:10:00.039Z, 7.4
2023-04-12T18:12:00.070Z, 7.3
2023-04-12T18:14:00.168Z, 7.3
2023-04-12T18:16:00.088Z, 7.5
2023-04-12T18:18:00.154Z, 7.7
2023-04-12T18:20:01.994Z, 7.7
2023-04-12T18:22:00.025Z, 7.8
2023-04-12T18:24:00.309Z, 7.8
2023-04-12T18:26:00.126Z, 7.7
2023-04-12T18:28:00.127Z, 7.6
2023-04-12T18:30:00.131Z, 7.4
2023-04-12T18:32:00.306Z, 7.3
2023-04-12T18:34:00.102Z, 7.3
2023-04-12T18:36:00.131Z, 7.2
2023-04-12T18:38:00.110Z, 7.1
2023-04-12T18:40:00.139Z, 6.9
2023-04-12T18:42:00.122Z, 6.7
2023-04-12T18:44:00.422Z, 6.6
2023-04-12T18:46:00.136Z, 6.7
2023-04-12T18:48:00.589Z, 6.6
2023-04-12T18:50:00.129Z, 6.6
2023-04-12T18:52:00.136Z, 6.7
2023-04-12T18:54:00.826Z, 6.9
2023-04-12T18:56:00.114Z, 6.6
2023-04-12T18:58:00.094Z, 6.5
2023-04-12T19:00:00.139Z, 6.6
2023-04-12T19:02:00.134Z, 6.7
2023-04-12T19:04:00.409Z, 6.8
2023-04-12T19:06:00.065Z, 7
2023-04-12T19:08:00.052Z, 7.3
2023-04-12T19:10:00.042Z, 7
2023-04-12T19:12:00.102Z, 6.8
2023-04-12T19:14:00.348Z, 6.7
2023-04-12T19:16:00.091Z, 6.6
2023-04-12T19:18:01.246Z, 6.6
2023-04-12T19:20:00.047Z, 6.6
2023-04-12T19:22:00.023Z, 6.6
2023-04-12T19:24:00.247Z, 7
2023-04-12T19:26:00.433Z, 7.3
2023-04-12T19:28:00.123Z, 7.7
2023-04-12T19:30:00.132Z, 7.8
2023-04-12T19:32:00.324Z, 7.4
2023-04-12T19:34:00.308Z, 7.4
2023-04-12T19:36:00.125Z, 7.6
2023-04-12T19:38:00.113Z, 7.9
2023-04-12T19:40:00.174Z, 8.2
2023-04-12T19:42:00.146Z, 8.4
2023-04-12T19:44:00.528Z, 8.3
2023-04-12T19:46:00.169Z, 8.4
2023-04-12T19:48:00.191Z, 8.5
2023-04-12T19:50:00.182Z, 8.3
2023-04-12T19:52:00.121Z, 8
2023-04-12T19:54:00.533Z, 7.9
2023-04-12T19:56:00.139Z, 7.8
2023-04-12T19:58:00.055Z, 7.6
2023-04-12T20:00:00.141Z, 7.7
2023-04-12T20:02:00.059Z, 7.6
2023-04-12T20:04:00.110Z, 7.5
2023-04-12T20:06:00.063Z, 7.5
2023-04-12T20:08:00.092Z, 7.6
2023-04-12T20:10:00.038Z, 7.5
2023-04-12T20:12:00.072Z, 7.7
2023-04-12T20:14:00.068Z, 7.8
2023-04-12T20:16:00.056Z, 7.9
2023-04-12T20:18:00.149Z, 7.9
2023-04-12T20:20:00.056Z, 7.5
2023-04-12T20:22:00.060Z, 7
2023-04-12T20:24:00.107Z, 6.8
2023-04-12T20:26:00.136Z, 6.6
2023-04-12T20:28:00.144Z, 6.6
2023-04-12T20:30:00.144Z, 6.7
2023-04-12T20:32:00.134Z, 6.7
2023-04-12T20:34:00.138Z, 6.8
2023-04-12T20:36:00.151Z, 6.9
2023-04-12T20:38:00.247Z, 7
2023-04-12T20:40:00.152Z, 7
2023-04-12T20:42:00.117Z, 7
2023-04-12T20:44:00.095Z, 7.1
2023-04-12T20:46:00.160Z, 7.2
2023-04-12T20:48:00.187Z, 7.1
2023-04-12T20:50:00.140Z, 7
2023-04-12T20:52:00.140Z, 6.9
2023-04-12T20:54:00.129Z, 6.8
2023-04-12T20:56:00.089Z, 6.7
2023-04-12T20:58:00.091Z, 6.8
2023-04-12T21:00:00.235Z, 6.8
2023-04-12T21:02:00.114Z, 6.8
2023-04-12T21:04:00.262Z, 6.6
2023-04-12T21:06:00.067Z, 6.7
2023-04-12T21:08:00.078Z, 6.7
2023-04-12T21:10:00.041Z, 6.9
2023-04-12T21:12:00.147Z, 7.1
2023-04-12T21:14:00.084Z, 6.9
2023-04-12T21:16:00.163Z, 6.8
2023-04-12T21:18:00.161Z, 6.8
2023-04-12T21:20:00.135Z, 6.6
2023-04-12T21:22:00.048Z, 6.6
2023-04-12T21:24:00.096Z, 6.5
2023-04-12T21:26:00.134Z, 6.6
2023-04-12T21:28:00.109Z, 6.5
2023-04-12T21:30:00.158Z, 6.7
2023-04-12T21:32:00.231Z, 6.7
2023-04-12T21:34:00.125Z, 6.6
2023-04-12T21:36:00.128Z, 6.3
2023-04-12T21:38:00.115Z, 6.1
2023-04-12T21:40:00.150Z, 5.9
2023-04-12T21:42:00.166Z, 5.8
2023-04-12T21:44:00.100Z, 5.7
2023-04-12T21:46:00.199Z, 5.6
2023-04-12T21:48:00.202Z, 5.5
2023-04-12T21:50:00.155Z, 5.5
2023-04-12T21:52:00.131Z, 5.7
2023-04-12T21:54:00.117Z, 5.8
2023-04-12T21:56:00.108Z, 6
2023-04-12T21:58:00.092Z, 6.3
2023-04-12T22:00:00.088Z, 6.4
2023-04-12T22:02:00.182Z, 6.7
2023-04-12T22:04:00.194Z, 6.9
2023-04-12T22:06:04.191Z, 7.1
2023-04-12T22:08:00.068Z, 7.3
2023-04-12T22:10:00.053Z, 7.1
2023-04-12T22:12:00.063Z, 6.9
2023-04-12T22:14:00.054Z, 6.8
2023-04-12T22:16:00.052Z, 6.6
2023-04-12T22:18:00.209Z, 6.6
2023-04-12T22:20:00.056Z, 6.7
2023-04-12T22:22:00.054Z, 6.8
2023-04-12T22:24:00.558Z, 6.8
2023-04-12T22:26:00.141Z, 6.7
2023-04-12T22:28:00.138Z, 6.7
2023-04-12T22:30:00.204Z, 6.8
2023-04-12T22:32:00.139Z, 6.6
2023-04-12T22:34:00.240Z, 6.6
2023-04-12T22:36:00.137Z, 6.5
2023-04-12T22:38:00.136Z, 6.5
2023-04-12T22:40:00.157Z, 6.5
2023-04-12T22:42:00.126Z, 6.5
2023-04-12T22:44:00.108Z, 6.6
2023-04-12T22:46:00.163Z, 6.5
2023-04-12T22:48:00.207Z, 6.5
2023-04-12T22:50:00.134Z, 6.5
2023-04-12T22:52:00.124Z, 6.4
2023-04-12T22:54:00.290Z, 6.5
2023-04-12T22:56:00.100Z, 6.5
2023-04-12T22:58:00.087Z, 6.4
2023-04-12T23:00:00.087Z, 6.4
2023-04-12T23:02:00.156Z, 6.4
2023-04-12T23:04:00.093Z, 6.3
2023-04-12T23:06:00.112Z, 6.2
2023-04-12T23:08:00.051Z, 6.2
2023-04-12T23:10:00.058Z, 6.3
2023-04-12T23:12:00.128Z, 6.2
2023-04-12T23:14:00.352Z, 6.3
2023-04-12T23:16:00.082Z, 6.3
2023-04-12T23:18:00.083Z, 6.3
2023-04-12T23:20:00.060Z, 6.2
2023-04-12T23:22:00.032Z, 6.2
2023-04-12T23:24:00.192Z, 6.3
2023-04-12T23:26:00.101Z, 6.3
2023-04-12T23:28:00.128Z, 6.3
2023-04-12T23:30:00.131Z, 6.2
2023-04-12T23:32:00.184Z, 6.3
2023-04-12T23:34:00.186Z, 6.2
2023-04-12T23:36:00.119Z, 6.2
2023-04-12T23:38:00.119Z, 6.3
2023-04-12T23:40:00.123Z, 6.3
2023-04-12T23:42:00.120Z, 6.2
2023-04-12T23:44:00.680Z, 6.3
2023-04-12T23:46:00.160Z, 6.3
2023-04-12T23:48:00.171Z, 6.2
2023-04-12T23:50:00.148Z, 6.3
2023-04-12T23:52:00.118Z, 6.2
2023-04-12T23:54:00.320Z, 6.1
2023-04-12T23:56:00.098Z, 6.1
2023-04-12T23:58:00.069Z, 6.1
